Time;durP1;ratioP1;P1;durP2;ratioP2;P2;SDS_P1;SDS_P2;PMS_P1;PMS_P2;Temp;Humidity;BMP_temperature;BMP_pressure;BME280_temperature;BME280_humidity;BME280_pressure;Samples;Min_cycle;Max_cycle;Signal;HPM_P1;HPM_P2
2022/09/22 00:00:26;;;;;;;2.13;1.27;;;11.40;99.90;;;;;;5050457;28;20056;-69
2022/09/22 00:02:57;;;;;;;0.10;0.10;;;11.50;99.90;;;;;;5034729;28;20037;-69
2022/09/22 00:05:23;;;;;;;0.10;0.10;;;11.40;99.90;;;;;;5026450;28;20148;-69
2022/09/22 00:07:49;;;;;;;0.10;0.10;;;11.40;99.90;;;;;;5030871;28;20053;-69
2022/09/22 00:10:17;;;;;;;0.20;0.20;;;11.40;99.90;;;;;;5034213;28;20054;-69
2022/09/22 00:12:46;;;;;;;0.10;0.10;;;11.40;99.90;;;;;;5044138;28;20489;-69
2022/09/22 00:15:11;;;;;;;0.20;0.20;;;11.30;99.90;;;;;;5030244;28;20481;-69
2022/09/22 00:17:37;;;;;;;0.10;0.10;;;11.30;99.90;;;;;;5035201;28;20037;-69
2022/09/22 00:20:03;;;;;;;0.10;0.10;;;11.30;99.90;;;;;;5050457;28;20510;-69
2022/09/22 00:22:29;;;;;;;0.10;0.10;;;11.30;99.90;;;;;;5047451;28;20072;-69
2022/09/22 00:24:55;;;;;;;0.00;0.00;;;11.30;99.90;;;;;;5049213;28;20400;-69
2022/09/22 00:27:23;;;;;;;0.32;0.20;;;11.30;99.90;;;;;;5048556;28;20041;-69
2022/09/22 00:29:50;;;;;;;0.17;0.17;;;11.30;99.90;;;;;;5051018;28;20045;-69
2022/09/22 00:32:18;;;;;;;0.10;0.10;;;11.20;99.90;;;;;;5029796;28;20041;-69
2022/09/22 00:34:44;;;;;;;0.30;0.30;;;11.20;99.90;;;;;;5019124;28;20121;-69
2022/09/22 00:37:11;;;;;;;0.32;0.32;;;11.10;99.90;;;;;;5027628;28;20469;-69
2022/09/22 00:39:36;;;;;;;0.52;0.28;;;11.00;99.90;;;;;;5035711;28;20448;-69
2022/09/22 00:42:03;;;;;;;2.17;1.58;;;11.00;99.90;;;;;;5028922;28;20064;-69
2022/09/22 00:44:28;;;;;;;0.38;0.38;;;10.90;99.90;;;;;;5030554;28;20124;-69
2022/09/22 00:47:17;;;;;;;0.10;0.10;;;10.90;99.90;;;;;;5029749;28;20454;-69
2022/09/22 00:49:59;;;;;;;0.10;0.10;;;10.90;99.90;;;;;;5043191;28;20076;-69
2022/09/22 00:52:31;;;;;;;1.15;0.60;;;10.90;99.90;;;;;;5029164;28;20052;-69
2022/09/22 00:55:01;;;;;;;0.00;0.00;;;10.80;99.90;;;;;;5036146;28;20049;-69
2022/09/22 00:57:32;;;;;;;0.25;0.25;;;10.90;99.90;;;;;;5032979;28;20053;-69
2022/09/22 00:59:58;;;;;;;0.43;0.43;;;10.80;99.90;;;;;;5009477;28;20168;-69
2022/09/22 01:02:24;;;;;;;0.17;0.17;;;10.90;99.90;;;;;;5023233;28;20048;-69
2022/09/22 01:04:51;;;;;;;1.10;1.00;;;10.80;99.90;;;;;;5042386;28;20044;-69
2022/09/22 01:07:20;;;;;;;0.10;0.10;;;10.80;99.90;;;;;;5033767;28;20073;-69
2022/09/22 01:09:46;;;;;;;0.25;0.25;;;10.80;99.90;;;;;;5049424;28;20130;-68
2022/09/22 01:12:11;;;;;;;0.20;0.20;;;10.70;99.90;;;;;;5030285;28;20088;-69
2022/09/22 01:14:50;;;;;;;0.13;0.13;;;10.70;99.90;;;;;;5030440;28;20072;-69
2022/09/22 01:17:42;;;;;;;0.20;0.20;;;10.70;99.90;;;;;;5025326;28;20045;-69
2022/09/22 01:20:14;;;;;;;0.10;0.10;;;10.70;99.90;;;;;;5025193;28;20045;-69
2022/09/22 01:23:14;;;;;;;3.50;3.22;;;10.70;99.90;;;;;;5010727;28;20053;-69
2022/09/22 01:25:48;;;;;;;0.00;0.00;;;10.70;99.90;;;;;;5046006;28;20539;-69
2022/09/22 01:28:28;;;;;;;0.10;0.10;;;10.70;99.90;;;;;;5049905;28;20048;-69
2022/09/22 01:31:10;;;;;;;0.73;0.73;;;10.60;99.90;;;;;;5035445;28;20041;-69
2022/09/22 01:33:54;;;;;;;0.10;0.10;;;10.50;99.90;;;;;;5038919;28;20029;-69
2022/09/22 01:36:25;;;;;;;1.00;1.00;;;10.50;99.90;;;;;;5038143;28;20049;-69
2022/09/22 01:39:00;;;;;;;0.40;0.40;;;10.50;99.90;;;;;;5028487;28;20052;-69
2022/09/22 01:41:50;;;;;;;0.82;0.80;;;10.60;99.90;;;;;;5024816;28;20232;-69
2022/09/22 01:44:30;;;;;;;0.10;0.10;;;10.50;99.90;;;;;;5041863;28;20404;-69
2022/09/22 01:47:01;;;;;;;0.10;0.10;;;10.40;99.90;;;;;;5050020;28;20112;-69
2022/09/22 01:49:31;;;;;;;0.10;0.10;;;10.40;99.90;;;;;;5033040;28;20560;-69
2022/09/22 01:52:00;;;;;;;0.10;0.10;;;10.40;99.90;;;;;;5020289;28;20042;-69
2022/09/22 01:54:32;;;;;;;0.25;0.25;;;10.50;99.90;;;;;;5049266;28;20074;-69
2022/09/22 01:57:11;;;;;;;0.35;0.35;;;10.50;99.90;;;;;;5040821;28;20572;-69
2022/09/22 01:59:39;;;;;;;0.10;0.10;;;10.50;99.90;;;;;;5033270;28;21081;-69
2022/09/22 02:02:15;;;;;;;0.93;0.85;;;10.40;99.90;;;;;;5018985;28;20053;-69
2022/09/22 02:04:46;;;;;;;0.10;0.10;;;10.30;99.90;;;;;;5032909;28;20098;-69
2022/09/22 02:07:19;;;;;;;0.63;0.60;;;10.30;99.90;;;;;;5033631;28;20052;-69
2022/09/22 02:09:47;;;;;;;0.10;0.10;;;10.40;99.90;;;;;;5026050;28;20048;-69
2022/09/22 02:12:13;;;;;;;0.00;0.00;;;10.40;99.90;;;;;;5036676;28;20080;-69
2022/09/22 02:14:39;;;;;;;0.08;0.08;;;10.40;99.90;;;;;;5032599;28;20037;-69
2022/09/22 02:17:04;;;;;;;0.28;0.28;;;10.30;99.90;;;;;;5035023;28;20044;-69
2022/09/22 02:19:35;;;;;;;0.20;0.20;;;10.40;99.90;;;;;;5051829;28;20091;-69
2022/09/22 02:22:00;;;;;;;0.00;0.00;;;10.40;99.90;;;;;;5042250;28;20127;-68
2022/09/22 02:24:29;;;;;;;0.10;0.10;;;10.40;99.90;;;;;;5053004;28;20124;-69
2022/09/22 02:27:03;;;;;;;0.43;0.43;;;10.40;99.90;;;;;;5051391;28;20056;-68
2022/09/22 02:29:32;;;;;;;0.15;0.15;;;10.40;99.90;;;;;;5053218;28;20119;-68
2022/09/22 02:32:00;;;;;;;0.00;0.00;;;10.40;99.90;;;;;;5040311;28;20045;-68
2022/09/22 02:34:27;;;;;;;0.00;0.00;;;10.40;99.90;;;;;;5031145;28;20061;-69
2022/09/22 02:37:03;;;;;;;0.20;0.20;;;10.40;99.90;;;;;;5040412;28;20041;-69
2022/09/22 02:39:44;;;;;;;0.10;0.10;;;10.40;99.90;;;;;;5052249;28;20048;-68
2022/09/22 02:42:17;;;;;;;0.10;0.10;;;10.40;99.90;;;;;;5027855;28;20117;-68
2022/09/22 02:45:11;;;;;;;0.10;0.10;;;10.40;99.90;;;;;;5047588;28;20198;-68
2022/09/22 02:47:58;;;;;;;0.07;0.07;;;10.30;99.90;;;;;;5048524;28;20080;-68
2022/09/22 02:50:27;;;;;;;0.10;0.10;;;10.30;99.90;;;;;;5038661;28;20397;-69
2022/09/22 02:52:59;;;;;;;0.10;0.10;;;10.30;99.90;;;;;;5021512;28;20107;-69
2022/09/22 02:55:25;;;;;;;0.20;0.20;;;10.30;99.90;;;;;;5010278;28;20144;-68
2022/09/22 02:57:51;;;;;;;0.03;0.03;;;10.30;99.90;;;;;;5049527;28;20317;-69
2022/09/22 03:00:16;;;;;;;0.10;0.10;;;10.30;99.90;;;;;;5050683;28;20052;-68
2022/09/22 03:02:42;;;;;;;0.00;0.00;;;10.30;99.90;;;;;;5026069;28;20172;-69
2022/09/22 03:05:08;;;;;;;0.00;0.00;;;10.20;99.90;;;;;;5050455;28;20465;-69
2022/09/22 03:07:33;;;;;;;0.10;0.10;;;10.20;99.90;;;;;;5013180;28;20042;-69
2022/09/22 03:09:59;;;;;;;0.00;0.00;;;10.20;99.90;;;;;;5029357;28;20057;-68
2022/09/22 03:12:24;;;;;;;0.10;0.10;;;10.20;99.90;;;;;;5029953;28;20045;-69
2022/09/22 03:14:50;;;;;;;0.10;0.10;;;10.20;99.90;;;;;;5011973;28;20486;-68
2022/09/22 03:17:16;;;;;;;0.10;0.10;;;10.20;99.90;;;;;;5018675;28;20178;-68
2022/09/22 03:19:41;;;;;;;0.10;0.10;;;10.20;99.90;;;;;;5052397;28;20076;-68
2022/09/22 03:22:07;;;;;;;0.80;0.60;;;10.20;99.90;;;;;;5039808;28;20044;-68
2022/09/22 03:24:32;;;;;;;0.10;0.10;;;10.20;99.90;;;;;;5039135;28;20045;-68
2022/09/22 03:26:58;;;;;;;0.30;0.30;;;10.20;99.90;;;;;;5051955;28;20041;-68
2022/09/22 03:29:23;;;;;;;0.20;0.20;;;10.20;99.90;;;;;;5048484;28;20049;-68
2022/09/22 03:31:49;;;;;;;0.38;0.32;;;10.20;99.90;;;;;;5030187;28;20041;-68
2022/09/22 03:34:15;;;;;;;0.10;0.10;;;10.10;99.90;;;;;;5011724;28;20045;-68
2022/09/22 03:36:40;;;;;;;0.00;0.00;;;10.10;99.90;;;;;;5026474;28;20103;-68
2022/09/22 03:39:06;;;;;;;0.85;0.85;;;10.10;99.90;;;;;;5049748;28;20051;-69
2022/09/22 03:41:32;;;;;;;0.68;0.68;;;10.00;99.90;;;;;;5024356;28;20054;-68
2022/09/22 03:43:58;;;;;;;0.20;0.20;;;9.90;99.90;;;;;;5030108;28;20041;-68
2022/09/22 03:46:24;;;;;;;0.10;0.10;;;9.90;99.90;;;;;;5048755;28;20140;-68
2022/09/22 03:48:50;;;;;;;0.00;0.00;;;10.00;99.90;;;;;;5042066;28;20056;-68
2022/09/22 03:51:16;;;;;;;0.08;0.08;;;10.00;99.90;;;;;;5025997;28;20144;-68
2022/09/22 03:53:41;;;;;;;0.10;0.10;;;10.00;99.90;;;;;;5021635;28;20048;-69
2022/09/22 03:56:10;;;;;;;0.10;0.10;;;10.00;99.90;;;;;;5031037;28;20554;-68
2022/09/22 03:58:37;;;;;;;0.10;0.10;;;10.00;99.90;;;;;;5030971;28;20548;-69
2022/09/22 04:01:04;;;;;;;1.27;1.17;;;9.90;99.90;;;;;;5020387;28;20513;-68
2022/09/22 04:03:30;;;;;;;0.32;0.32;;;9.90;99.90;;;;;;5025485;28;20063;-68
2022/09/22 04:05:56;;;;;;;0.10;0.10;;;9.90;99.90;;;;;;5039585;28;20045;-68
2022/09/22 04:08:22;;;;;;;0.10;0.10;;;9.90;99.90;;;;;;5034451;28;20510;-68
2022/09/22 04:10:47;;;;;;;0.10;0.10;;;9.90;99.90;;;;;;5035005;28;20386;-69
2022/09/22 04:13:13;;;;;;;0.00;0.00;;;9.90;99.90;;;;;;5023572;28;20041;-68
2022/09/22 04:15:39;;;;;;;0.00;0.00;;;9.80;99.90;;;;;;5049382;28;20040;-68
2022/09/22 04:18:05;;;;;;;0.10;0.10;;;9.90;99.90;;;;;;5043885;28;20052;-68
2022/09/22 04:20:31;;;;;;;0.10;0.10;;;9.80;99.90;;;;;;5043744;28;20045;-68
2022/09/22 04:22:57;;;;;;;0.10;0.10;;;9.70;99.90;;;;;;5030952;28;20037;-68
2022/09/22 04:25:22;;;;;;;0.38;0.38;;;9.80;99.90;;;;;;5025830;28;20048;-69
2022/09/22 04:27:48;;;;;;;0.10;0.10;;;9.70;99.90;;;;;;5042106;28;20052;-68
2022/09/22 04:30:14;;;;;;;0.10;0.10;;;9.70;99.90;;;;;;5035159;28;20045;-68
2022/09/22 04:32:39;;;;;;;0.10;0.10;;;9.70;99.90;;;;;;5033897;28;20448;-68
2022/09/22 04:35:06;;;;;;;0.10;0.10;;;9.70;99.90;;;;;;5037414;28;20095;-68
2022/09/22 04:37:31;;;;;;;1.35;0.65;;;9.70;99.90;;;;;;5021738;28;20106;-69
2022/09/22 04:39:58;;;;;;;0.10;0.10;;;9.70;99.90;;;;;;5018191;28;20037;-68
2022/09/22 04:42:23;;;;;;;0.70;0.70;;;9.70;99.90;;;;;;5046175;28;20043;-68
2022/09/22 04:44:49;;;;;;;0.10;0.10;;;9.70;99.90;;;;;;5050819;28;20045;-69
2022/09/22 04:47:14;;;;;;;0.10;0.10;;;9.60;99.90;;;;;;5032050;28;20045;-69
2022/09/22 04:49:40;;;;;;;0.10;0.10;;;9.70;99.90;;;;;;5049217;28;20095;-68
2022/09/22 04:52:05;;;;;;;0.00;0.00;;;9.70;99.90;;;;;;5035567;28;20041;-69
2022/09/22 04:54:31;;;;;;;0.10;0.10;;;9.60;99.90;;;;;;5023677;28;20107;-68
2022/09/22 04:56:56;;;;;;;0.10;0.10;;;9.60;99.90;;;;;;5036753;28;20133;-69
2022/09/22 04:59:22;;;;;;;0.10;0.10;;;9.60;99.90;;;;;;5024477;28;20556;-68
2022/09/22 05:01:48;;;;;;;0.00;0.00;;;9.60;99.90;;;;;;5035586;28;20433;-68
2022/09/22 05:04:13;;;;;;;0.10;0.10;;;9.60;99.90;;;;;;5030044;28;20092;-69
2022/09/22 05:06:40;;;;;;;0.00;0.00;;;9.60;99.90;;;;;;5022740;28;20046;-69
2022/09/22 05:09:06;;;;;;;0.10;0.10;;;9.60;99.90;;;;;;5009059;28;20085;-68
2022/09/22 05:11:31;;;;;;;0.10;0.10;;;9.50;99.90;;;;;;5048573;28;20048;-69
2022/09/22 05:13:57;;;;;;;0.10;0.10;;;9.50;99.90;;;;;;5050313;28;20044;-69
2022/09/22 05:16:23;;;;;;;0.10;0.10;;;9.60;99.90;;;;;;5026711;28;20037;-68
2022/09/22 05:18:49;;;;;;;0.10;0.10;;;9.50;99.90;;;;;;5020899;28;20046;-68
2022/09/22 05:21:17;;;;;;;0.10;0.10;;;9.50;99.90;;;;;;5048299;28;20067;-69
2022/09/22 05:23:43;;;;;;;0.10;0.10;;;9.50;99.90;;;;;;5045702;28;20060;-68
2022/09/22 05:26:09;;;;;;;0.45;0.45;;;9.50;99.90;;;;;;5037050;28;20413;-68
2022/09/22 05:28:35;;;;;;;0.55;0.55;;;9.50;99.90;;;;;;5046974;28;20037;-68
2022/09/22 05:31:01;;;;;;;0.00;0.00;;;9.50;99.90;;;;;;5052433;28;20606;-68
2022/09/22 05:33:26;;;;;;;0.10;0.10;;;9.50;99.90;;;;;;5048371;28;20029;-68
2022/09/22 05:35:52;;;;;;;0.10;0.10;;;9.50;99.90;;;;;;5042395;28;20048;-68
2022/09/22 05:38:17;;;;;;;0.10;0.10;;;9.50;99.90;;;;;;5047813;28;20094;-68
2022/09/22 05:40:46;;;;;;;0.40;0.40;;;9.60;99.90;;;;;;5041899;28;20080;-68
2022/09/22 05:43:12;;;;;;;0.10;0.10;;;9.60;99.90;;;;;;5033502;28;20053;-68
2022/09/22 05:45:38;;;;;;;0.10;0.10;;;9.60;99.90;;;;;;5051991;28;20068;-68
2022/09/22 05:48:04;;;;;;;0.10;0.10;;;9.50;99.90;;;;;;5034915;28;20064;-68
2022/09/22 05:50:29;;;;;;;0.28;0.28;;;9.50;99.90;;;;;;5035425;28;20196;-68
2022/09/22 05:53:06;;;;;;;0.25;0.17;;;9.40;99.90;;;;;;5053649;28;20067;-68
2022/09/22 05:55:32;;;;;;;0.08;0.08;;;9.40;99.90;;;;;;5052362;28;20041;-67
2022/09/22 05:57:59;;;;;;;0.10;0.10;;;9.50;99.90;;;;;;5035818;28;20067;-68
2022/09/22 06:00:25;;;;;;;0.10;0.10;;;9.60;99.90;;;;;;5029271;28;20412;-68
2022/09/22 06:02:50;;;;;;;18.92;0.95;;;9.60;99.90;;;;;;5022742;28;20064;-67
2022/09/22 06:05:16;;;;;;;0.15;0.15;;;9.60;99.90;;;;;;5042805;28;20041;-68
2022/09/22 06:07:42;;;;;;;0.10;0.10;;;9.60;99.90;;;;;;5030852;28;20047;-68
2022/09/22 06:10:10;;;;;;;0.17;0.17;;;9.60;99.90;;;;;;5052680;28;20041;-68
2022/09/22 06:12:36;;;;;;;0.03;0.03;;;9.70;99.90;;;;;;5046297;28;20060;-68
2022/09/22 06:15:03;;;;;;;0.10;0.10;;;9.70;99.90;;;;;;5032764;28;20059;-68
2022/09/22 06:17:28;;;;;;;0.10;0.10;;;9.70;99.90;;;;;;5039638;28;20052;-67
2022/09/22 06:19:54;;;;;;;0.10;0.10;;;9.80;99.90;;;;;;5036523;28;20037;-68
2022/09/22 06:22:19;;;;;;;0.70;0.30;;;9.80;99.90;;;;;;5031015;28;20057;-68
2022/09/22 06:24:45;;;;;;;0.10;0.10;;;9.90;99.90;;;;;;5042818;28;20037;-68
2022/09/22 06:27:10;;;;;;;0.70;0.30;;;10.00;99.90;;;;;;5045070;28;20049;-68
2022/09/22 06:29:36;;;;;;;0.20;0.20;;;10.10;99.90;;;;;;5032011;28;20393;-68
2022/09/22 06:32:03;;;;;;;0.10;0.10;;;10.10;99.90;;;;;;5021591;28;20485;-67
2022/09/22 06:34:28;;;;;;;0.10;0.10;;;10.20;99.90;;;;;;5048784;28;20095;-68
2022/09/22 06:36:58;;;;;;;0.30;0.30;;;10.20;99.90;;;;;;5027672;28;20367;-67
2022/09/22 06:39:23;;;;;;;0.25;0.25;;;10.30;99.90;;;;;;5039045;28;20049;-68
2022/09/22 06:41:49;;;;;;;0.10;0.10;;;10.40;99.90;;;;;;5026296;28;20034;-67
2022/09/22 06:44:14;;;;;;;0.10;0.10;;;10.50;99.90;;;;;;5043252;28;20048;-68
2022/09/22 06:46:40;;;;;;;0.10;0.10;;;10.50;99.90;;;;;;5039290;28;20452;-68
2022/09/22 06:49:06;;;;;;;0.08;0.08;;;10.60;99.90;;;;;;5041279;28;20047;-68
2022/09/22 06:51:35;;;;;;;0.10;0.10;;;10.60;99.90;;;;;;5049687;28;20045;-68
2022/09/22 06:54:03;;;;;;;0.90;0.65;;;10.60;99.90;;;;;;5052000;28;20098;-67
2022/09/22 06:56:33;;;;;;;0.25;0.25;;;10.70;99.90;;;;;;5036254;28;20116;-68
2022/09/22 06:58:59;;;;;;;0.00;0.00;;;10.80;99.90;;;;;;5032614;28;20049;-68
2022/09/22 07:01:27;;;;;;;0.10;0.10;;;10.80;99.90;;;;;;5021352;28;20084;-68
2022/09/22 07:03:54;;;;;;;0.00;0.00;;;10.90;99.90;;;;;;5045845;28;20064;-68
2022/09/22 07:06:20;;;;;;;0.10;0.10;;;10.90;99.90;;;;;;5034390;28;20064;-68
2022/09/22 07:08:47;;;;;;;0.10;0.10;;;11.00;99.90;;;;;;5050048;28;20041;-68
2022/09/22 07:11:16;;;;;;;0.40;0.40;;;11.10;99.90;;;;;;5032436;28;20076;-68
2022/09/22 07:13:44;;;;;;;0.00;0.00;;;11.10;99.90;;;;;;5050581;28;20052;-67
2022/09/22 07:16:16;;;;;;;0.10;0.10;;;11.10;99.90;;;;;;5047874;28;20316;-68
2022/09/22 07:18:44;;;;;;;0.75;0.75;;;11.20;99.90;;;;;;5033983;28;20041;-68
2022/09/22 07:21:12;;;;;;;0.10;0.10;;;11.20;99.90;;;;;;5048524;28;20053;-68
2022/09/22 07:23:39;;;;;;;0.10;0.10;;;11.30;99.90;;;;;;5049686;28;20073;-67
2022/09/22 07:26:11;;;;;;;0.10;0.10;;;11.30;99.90;;;;;;5049567;28;20076;-68
2022/09/22 07:28:37;;;;;;;0.10;0.10;;;11.40;99.90;;;;;;5030379;28;20076;-68
2022/09/22 07:31:04;;;;;;;0.10;0.10;;;11.40;99.90;;;;;;5049248;28;20659;-68
2022/09/22 07:33:34;;;;;;;0.10;0.10;;;11.50;99.90;;;;;;5050340;28;20128;-68
2022/09/22 07:36:01;;;;;;;0.10;0.10;;;11.50;99.90;;;;;;5042138;28;20520;-68
2022/09/22 07:38:32;;;;;;;18.98;0.63;;;11.60;99.90;;;;;;5029645;28;20046;-68
2022/09/22 07:40:59;;;;;;;0.10;0.10;;;11.70;99.90;;;;;;5030106;28;20045;-68
2022/09/22 07:43:28;;;;;;;0.10;0.10;;;11.70;99.90;;;;;;5027929;28;20049;-68
2022/09/22 07:45:56;;;;;;;0.10;0.10;;;11.70;99.90;;;;;;5028493;28;20489;-68
2022/09/22 07:48:35;;;;;;;0.00;0.00;;;11.80;99.90;;;;;;5049433;28;20063;-68
2022/09/22 07:51:04;;;;;;;0.20;0.20;;;11.90;99.90;;;;;;5046873;28;20057;-68
2022/09/22 07:53:30;;;;;;;0.10;0.10;;;11.90;99.90;;;;;;5049166;28;20058;-68
2022/09/22 07:56:05;;;;;;;0.10;0.10;;;12.00;99.90;;;;;;5038814;28;21501;-68
2022/09/22 07:58:31;;;;;;;0.20;0.20;;;12.10;99.90;;;;;;5025885;28;20041;-69
2022/09/22 08:00:57;;;;;;;0.00;0.00;;;12.20;99.90;;;;;;5029519;28;20065;-69
2022/09/22 08:03:23;;;;;;;0.10;0.10;;;12.20;99.90;;;;;;5025490;28;20045;-68
2022/09/22 08:05:50;;;;;;;0.08;0.08;;;12.30;99.90;;;;;;5029543;28;20054;-69
2022/09/22 08:08:16;;;;;;;0.10;0.10;;;12.30;99.90;;;;;;5028792;28;20053;-69
2022/09/22 08:10:41;;;;;;;0.20;0.20;;;12.40;99.90;;;;;;5032948;28;20392;-69
2022/09/22 08:13:08;;;;;;;0.10;0.10;;;12.50;99.90;;;;;;5042050;28;20049;-68
2022/09/22 08:15:34;;;;;;;0.00;0.00;;;12.60;99.90;;;;;;5024872;28;20094;-68
2022/09/22 08:18:02;;;;;;;0.20;0.20;;;12.70;99.90;;;;;;5036545;28;20875;-69
2022/09/22 08:20:28;;;;;;;0.10;0.10;;;12.90;99.90;;;;;;5033794;28;20099;-68
2022/09/22 08:22:59;;;;;;;0.10;0.10;;;12.90;99.90;;;;;;5026753;28;20030;-68
2022/09/22 08:25:25;;;;;;;0.10;0.10;;;13.00;99.90;;;;;;5017931;28;20080;-69
2022/09/22 08:27:50;;;;;;;0.47;0.47;;;13.00;99.90;;;;;;5028752;28;20076;-69
2022/09/22 08:30:17;;;;;;;0.45;0.45;;;13.00;99.90;;;;;;5025649;28;20107;-68
2022/09/22 08:32:43;;;;;;;0.10;0.10;;;13.20;99.90;;;;;;5026731;28;20041;-68
2022/09/22 08:35:08;;;;;;;0.10;0.10;;;13.30;99.90;;;;;;5015774;28;20046;-68
2022/09/22 08:37:35;;;;;;;0.55;0.55;;;13.40;99.90;;;;;;5033681;28;20052;-69
2022/09/22 08:40:01;;;;;;;0.00;0.00;;;13.80;99.90;;;;;;5039564;28;20088;-69
2022/09/22 08:42:27;;;;;;;0.10;0.10;;;15.10;99.90;;;;;;5028092;28;20045;-69
2022/09/22 08:45:06;;;;;;;2.20;0.75;;;16.00;99.90;;;;;;5050924;28;20049;-69
2022/09/22 08:53:36;;;;;;;0.00;0.00;;;18.40;99.90;;;;;;5020436;28;20065;-69
2022/09/22 08:56:32;;;;;;;0.10;0.10;;;18.70;99.90;;;;;;5041680;28;20516;-69
2022/09/22 08:59:31;;;;;;;0.10;0.10;;;18.80;99.90;;;;;;5030387;28;20052;-69
2022/09/22 09:02:34;;;;;;;0.10;0.10;;;18.90;99.90;;;;;;5029462;28;20041;-69
2022/09/22 09:05:29;;;;;;;0.10;0.10;;;18.40;99.90;;;;;;5028217;28;20057;-69
2022/09/22 09:08:06;;;;;;;0.00;0.00;;;17.70;99.90;;;;;;5030134;28;20041;-69
2022/09/22 09:10:53;;;;;;;0.13;0.13;;;17.20;99.90;;;;;;5031935;28;20037;-69
2022/09/22 09:13:27;;;;;;;6.18;2.05;;;17.00;99.90;;;;;;5036611;28;20076;-69
2022/09/22 09:15:59;;;;;;;0.30;0.30;;;17.00;99.90;;;;;;5015262;28;20452;-69
2022/09/22 09:18:32;;;;;;;0.00;0.00;;;17.50;99.90;;;;;;5025216;28;20117;-68
2022/09/22 09:21:01;;;;;;;2.60;0.52;;;18.10;99.90;;;;;;5023164;28;20050;-68
2022/09/22 09:23:51;;;;;;;0.38;0.22;;;18.70;99.90;;;;;;5019541;28;20053;-68
2022/09/22 09:26:17;;;;;;;0.00;0.00;;;19.20;99.90;;;;;;5030007;28;20662;-69
2022/09/22 09:28:57;;;;;;;0.10;0.10;;;19.70;99.60;;;;;;5028049;28;20073;-68
2022/09/22 09:31:30;;;;;;;0.00;0.00;;;19.90;99.80;;;;;;5015879;28;20082;-68
2022/09/22 09:34:13;;;;;;;0.00;0.00;;;20.10;98.60;;;;;;5032292;28;20041;-68
2022/09/22 09:36:44;;;;;;;0.00;0.00;;;20.30;98.90;;;;;;5009110;28;20034;-68
2022/09/22 09:39:20;;;;;;;0.00;0.00;;;20.20;97.70;;;;;;5012028;28;20041;-68
2022/09/22 09:41:47;;;;;;;0.10;0.10;;;20.70;98.30;;;;;;5028155;28;20077;-68
2022/09/22 09:44:37;;;;;;;0.10;0.10;;;20.90;98.00;;;;;;5028430;28;20037;-69
2022/09/22 09:47:27;;;;;;;0.10;0.10;;;21.10;97.60;;;;;;5044036;28;20048;-68
2022/09/22 09:49:53;;;;;;;0.00;0.00;;;21.10;97.40;;;;;;5027292;28;20046;-68
2022/09/22 09:52:20;;;;;;;0.10;0.10;;;21.20;97.60;;;;;;5042416;28;20385;-67
2022/09/22 09:54:48;;;;;;;0.00;0.00;;;21.00;97.90;;;;;;5033849;28;20033;-68
2022/09/22 09:57:16;;;;;;;0.30;0.30;;;21.20;98.20;;;;;;5021646;28;20446;-68
2022/09/22 10:02:29;;;;;;;0.77;0.55;;;20.50;98.30;;;;;;5009588;28;20049;-68
2022/09/22 10:04:59;;;;;;;0.20;0.20;;;20.40;98.60;;;;;;5009171;28;20456;-68
2022/09/22 10:07:38;;;;;;;0.00;0.00;;;20.10;97.50;;;;;;5016576;28;20053;-68
2022/09/22 10:10:34;;;;;;;0.65;0.65;;;20.10;97.90;;;;;;5038490;28;20041;-69
2022/09/22 10:13:02;;;;;;;0.00;0.00;;;20.00;97.60;;;;;;5028355;28;20383;-68
2022/09/22 10:15:30;;;;;;;0.45;0.20;;;20.10;98.40;;;;;;5036362;28;20045;-69
2022/09/22 10:17:55;;;;;;;0.00;0.00;;;20.00;97.40;;;;;;5031138;28;20522;-68
2022/09/22 10:20:30;;;;;;;0.08;0.08;;;19.90;98.40;;;;;;5023331;28;20045;-68
2022/09/22 10:23:17;;;;;;;0.00;0.00;;;19.90;98.20;;;;;;5025006;28;20049;-68
2022/09/22 10:25:43;;;;;;;0.10;0.10;;;19.70;97.90;;;;;;5031439;28;20049;-68
2022/09/22 10:28:19;;;;;;;0.00;0.00;;;19.70;98.30;;;;;;5031180;28;20042;-68
2022/09/22 10:31:01;;;;;;;0.05;0.05;;;19.70;98.20;;;;;;5027444;28;20076;-69
2022/09/22 10:33:27;;;;;;;0.00;0.00;;;19.60;98.50;;;;;;5014775;28;20481;-69
2022/09/22 10:36:03;;;;;;;0.10;0.10;;;19.60;98.50;;;;;;5043234;28;20091;-69
2022/09/22 10:38:32;;;;;;;0.32;0.30;;;19.50;99.80;;;;;;5013089;28;20056;-70
2022/09/22 10:41:06;;;;;;;0.65;0.35;;;19.60;99.90;;;;;;5020588;28;20030;-69
2022/09/22 10:43:36;;;;;;;0.30;0.30;;;19.60;99.90;;;;;;5036648;28;20055;-69
2022/09/22 10:46:07;;;;;;;1.27;0.52;;;19.70;98.80;;;;;;5044453;28;20057;-69
2022/09/22 10:48:52;;;;;;;0.25;0.25;;;19.70;99.20;;;;;;5034793;28;20080;-69
2022/09/22 10:51:23;;;;;;;0.28;0.28;;;19.80;99.90;;;;;;5029284;28;20048;-69
2022/09/22 10:54:06;;;;;;;0.20;0.20;;;19.70;98.30;;;;;;5044369;28;20140;-69
2022/09/22 10:56:40;;;;;;;2.42;1.65;;;19.70;98.30;;;;;;5026144;28;20046;-69
2022/09/22 10:59:23;;;;;;;0.00;0.00;;;20.00;99.30;;;;;;5025805;28;20048;-69
2022/09/22 11:01:49;;;;;;;;;;;20.20;99.90;;;;;;5043950;28;20072;-69
2022/09/22 11:04:39;;;;;;;0.32;0.32;;;20.20;98.30;;;;;;5014878;28;19937;-70
2022/09/22 11:13:45;;;;;;;0.10;0.10;;;20.30;97.10;;;;;;5033163;28;20049;-69
2022/09/22 11:16:33;;;;;;;0.08;0.08;;;20.40;96.80;;;;;;5046199;28;20053;-69
2022/09/22 11:19:12;;;;;;;0.10;0.10;;;20.50;97.60;;;;;;5012777;28;20046;-69
2022/09/22 11:21:56;;;;;;;0.60;0.60;;;20.60;98.30;;;;;;5041145;28;20049;-69
2022/09/22 11:24:27;;;;;;;;;;;20.50;96.60;;;;;;5039562;28;20042;-68
2022/09/22 11:27:00;;;;;;;0.20;0.20;;;20.80;97.20;;;;;;5022240;28;19932;-69
2022/09/22 11:30:01;;;;;;;8.07;2.53;;;20.80;96.80;;;;;;5026319;28;20047;-69
2022/09/22 11:33:06;;;;;;;0.00;0.00;;;21.00;96.90;;;;;;5033963;28;20524;-70
2022/09/22 11:35:47;;;;;;;0.22;0.22;;;20.90;97.00;;;;;;5036227;28;20148;-69
2022/09/22 11:38:49;;;;;;;0.60;0.57;;;20.90;95.80;;;;;;5021918;28;20045;-69
2022/09/22 11:41:25;;;;;;;0.10;0.10;;;20.90;96.70;;;;;;5022822;28;20053;-69
2022/09/22 11:43:54;;;;;;;0.00;0.00;;;20.90;95.40;;;;;;5021650;28;20139;-69
2022/09/22 11:46:27;;;;;;;0.30;0.30;;;21.00;97.30;;;;;;5021131;28;20072;-69
2022/09/22 11:49:15;;;;;;;0.20;0.20;;;21.10;95.70;;;;;;5047826;28;20049;-69
2022/09/22 11:52:05;;;;;;;0.20;0.20;;;21.20;96.40;;;;;;5025028;28;20132;-69
2022/09/22 11:55:01;;;;;;;0.20;0.20;;;21.30;96.90;;;;;;5027231;28;20493;-69
2022/09/22 11:57:32;;;;;;;2.33;0.93;;;21.40;94.80;;;;;;5032806;28;20049;-70
2022/09/22 12:00:04;;;;;;;0.17;0.17;;;21.40;95.30;;;;;;5031819;28;20132;-69
2022/09/22 12:03:20;;;;;;;0.47;0.47;;;21.80;95.80;;;;;;5027174;28;20041;-69
2022/09/22 12:05:52;;;;;;;0.00;0.00;;;21.90;96.50;;;;;;5025048;28;20083;-68
2022/09/22 12:08:21;;;;;;;0.00;0.00;;;22.00;94.80;;;;;;5028690;28;20046;-69
2022/09/22 12:10:49;;;;;;;1.08;0.50;;;22.00;95.10;;;;;;5050653;28;20041;-69
2022/09/22 12:13:21;;;;;;;0.20;0.20;;;21.70;95.60;;;;;;5049978;28;20037;-69
2022/09/22 12:16:08;;;;;;;0.35;0.35;;;21.90;95.90;;;;;;5040395;28;20242;-69
2022/09/22 12:18:48;;;;;;;0.00;0.00;;;22.20;95.20;;;;;;5020326;28;20041;-69
2022/09/22 12:21:22;;;;;;;0.00;0.00;;;22.50;95.30;;;;;;5029840;28;20049;-69
2022/09/22 12:23:49;;;;;;;0.00;0.00;;;22.70;95.80;;;;;;5029559;28;20068;-69
2022/09/22 12:26:31;;;;;;;0.08;0.08;;;21.90;95.00;;;;;;5022603;28;20046;-69
2022/09/22 12:28:58;;;;;;;0.08;0.08;;;22.10;94.70;;;;;;5026525;28;20034;-69
2022/09/22 12:31:36;;;;;;;0.00;0.00;;;22.50;93.50;;;;;;5027919;28;20064;-69
2022/09/22 12:34:04;;;;;;;0.22;0.22;;;22.20;93.60;;;;;;5016447;28;20108;-69
2022/09/22 12:36:35;;;;;;;0.35;0.35;;;21.70;94.70;;;;;;5021901;28;20041;-69
2022/09/22 12:39:10;;;;;;;0.10;0.10;;;21.80;95.90;;;;;;5008689;28;20053;-69
2022/09/22 12:41:51;;;;;;;7.03;1.88;;;21.70;95.10;;;;;;5040912;28;20087;-69
2022/09/22 12:44:28;;;;;;;2.45;0.57;;;21.50;95.60;;;;;;5033523;28;20056;-69
2022/09/22 12:47:06;;;;;;;0.20;0.20;;;21.70;95.50;;;;;;5018809;28;20086;-69
2022/09/22 12:49:32;;;;;;;0.00;0.00;;;21.40;95.80;;;;;;5029672;28;20052;-68
2022/09/22 12:51:58;;;;;;;0.00;0.00;;;21.70;95.80;;;;;;5034808;28;20426;-69
2022/09/22 12:54:25;;;;;;;0.35;0.35;;;22.20;95.80;;;;;;5015051;28;20073;-69
2022/09/22 12:56:53;;;;;;;0.00;0.00;;;22.40;95.80;;;;;;5014250;28;20393;-69
2022/09/22 12:59:37;;;;;;;0.00;0.00;;;22.20;94.90;;;;;;5025408;28;20045;-69
2022/09/22 13:02:25;;;;;;;0.00;0.00;;;21.70;94.90;;;;;;5029072;28;20060;-69
2022/09/22 13:04:54;;;;;;;0.10;0.10;;;21.90;96.30;;;;;;5025808;28;20057;-69
2022/09/22 13:07:39;;;;;;;0.17;0.17;;;22.40;96.60;;;;;;5023756;28;20064;-69
2022/09/22 13:10:23;;;;;;;0.00;0.00;;;22.90;95.80;;;;;;5024462;28;20060;-70
2022/09/22 13:13:01;;;;;;;;;;;22.80;94.70;;;;;;5048732;28;20041;-69
2022/09/22 13:15:42;;;;;;;0.00;0.00;;;22.70;93.90;;;;;;5027645;28;19974;-69
2022/09/22 13:18:28;;;;;;;0.00;0.00;;;22.70;94.60;;;;;;5026855;28;20036;-69
2022/09/22 13:20:54;;;;;;;0.00;0.00;;;22.70;95.20;;;;;;5045617;28;20374;-69
2022/09/22 13:23:20;;;;;;;0.00;0.00;;;22.80;94.00;;;;;;5047970;28;20052;-69
2022/09/22 13:25:45;;;;;;;0.00;0.00;;;22.80;95.00;;;;;;5026229;28;20390;-69